Time;durP1;ratioP1;P1;durP2;ratioP2;P2;SDS_P1;SDS_P2;PMS_P1;PMS_P2;Temp;Humidity;BMP_temperature;BMP_pressure;BME280_temperature;BME280_humidity;BME280_pressure;Samples;Min_cycle;Max_cycle;Signal;HPM_P1;HPM_P2
2022/03/18 00:01:15;;;;;;;15.83;10.90;;;;;;;10.82;26.32;102433.41;1844482;105;25890;-85
2022/03/18 00:05:54;;;;;;;19.12;10.48;;;;;;;10.76;26.37;102428.74;1842527;105;25931;-86
2022/03/18 00:09:30;;;;;;;16.02;9.83;;;;;;;10.75;26.41;102436.50;1793533;108;25778;-86
2022/03/18 00:13:18;;;;;;;;;;;;;;;;;;;;;
2022/03/18 00:17:03;;;;;;;15.53;10.23;;;;;;;10.66;26.50;102446.00;1774175;110;26900;-87
2022/03/18 00:20:46;;;;;;;14.73;10.68;;;;;;;10.62;26.54;102453.17;1712946;111;25935;-87
2022/03/18 00:28:37;;;;;;;17.25;10.13;;;;;;;10.57;26.60;102462.46;1732037;111;25845;-86
2022/03/18 00:32:49;;;;;;;;;;;;;;;;;;;;;
2022/03/18 00:36:21;;;;;;;12.25;9.65;;;;;;;10.50;26.64;102463.83;1756281;109;25829;-87
2022/03/18 00:40:15;;;;;;;16.25;10.63;;;;;;;10.49;26.69;102463.30;1772310;107;25907;-85
2022/03/18 00:44:09;;;;;;;18.35;10.25;;;;;;;10.49;26.70;102462.41;1811528;105;25826;-88
2022/03/18 00:56:03;;;;;;;;;;;;;;;;;;;;;
2022/03/18 01:03:21;;;;;;;14.10;10.63;;;;;;;10.34;26.94;102468.55;1785776;108;25533;-86
2022/03/18 01:07:06;;;;;;;15.05;9.28;;;;;;;10.33;26.97;102466.77;1789541;106;25913;-86
2022/03/18 01:10:53;;;;;;;15.55;10.28;;;;;;;10.30;27.02;102466.99;1828730;106;25881;-88
2022/03/18 01:14:35;;;;;;;13.22;10.48;;;;;;;10.27;27.07;102461.59;1830893;104;25846;-86
2022/03/18 01:18:28;;;;;;;16.85;9.98;;;;;;;10.24;27.11;102458.37;1846456;103;25922;-85
2022/03/18 01:22:16;;;;;;;;;;;;;;;;;;;;;
2022/03/18 01:25:55;;;;;;;15.60;10.60;;;;;;;10.18;27.22;102464.11;1915791;101;26172;-85
2022/03/18 01:33:40;;;;;;;;;;;;;;;;;;;;;
2022/03/18 01:37:17;;;;;;;12.30;9.25;;;;;;;10.10;27.34;102473.61;1955252;98;26528;-85
2022/03/18 01:40:57;;;;;;;15.43;9.93;;;;;;;10.07;27.39;102473.42;1954561;99;25902;-86
2022/03/18 01:44:30;;;;;;;14.73;9.35;;;;;;;10.04;27.43;102471.94;1979465;97;26151;-86
2022/03/18 01:48:18;;;;;;;15.05;10.25;;;;;;;10.01;27.44;102483.48;1987621;96;25873;-86
2022/03/18 01:51:57;;;;;;;14.45;10.35;;;;;;;9.97;27.48;102477.19;1987222;97;25769;-85
2022/03/18 01:55:31;;;;;;;17.80;10.40;;;;;;;9.94;27.53;102477.01;1984773;97;25506;-86
2022/03/18 01:58:59;;;;;;;14.53;9.48;;;;;;;9.90;27.57;102472.02;2015043;94;25890;-87
2022/03/18 02:02:36;;;;;;;13.03;9.53;;;;;;;9.88;27.59;102476.22;2088639;88;25879;-84
2022/03/18 02:06:23;;;;;;;13.53;9.35;;;;;;;9.86;27.63;102478.27;2170181;89;25938;-85
2022/03/18 02:10:17;;;;;;;12.13;9.28;;;;;;;9.82;27.68;102476.27;2165297;88;25546;-85
2022/03/18 02:13:56;;;;;;;15.63;9.00;;;;;;;9.80;27.71;102477.89;2197099;89;25835;-85
2022/03/18 02:17:25;;;;;;;16.73;10.25;;;;;;;9.75;27.76;102481.50;2084898;94;25916;-86
2022/03/18 02:21:08;;;;;;;18.05;9.43;;;;;;;9.72;27.78;102473.91;2081280;94;25956;-86
2022/03/18 02:24:50;;;;;;;14.03;9.45;;;;;;;9.70;27.83;102476.44;2093589;92;25760;-85
2022/03/18 02:28:19;;;;;;;12.88;9.18;;;;;;;9.67;27.88;102473.23;2120179;90;25921;-86
2022/03/18 02:32:07;;;;;;;16.20;8.98;;;;;;;9.64;27.90;102478.66;2125338;92;25809;-85
2022/03/18 02:35:51;;;;;;;13.45;9.28;;;;;;;9.63;27.93;102484.69;2051965;92;25833;-85
2022/03/18 02:39:33;;;;;;;10.82;8.40;;;;;;;9.58;27.96;102485.69;2015993;97;25919;-85
2022/03/18 02:43:32;;;;;;;14.18;9.78;;;;;;;9.54;27.99;102491.52;2000077;97;25800;-85
2022/03/18 02:47:14;;;;;;;17.30;9.18;;;;;;;9.53;28.04;102494.05;2030699;91;25825;-84
2022/03/18 02:50:50;;;;;;;13.25;9.00;;;;;;;9.50;28.08;102501.25;2071304;94;25942;-86
2022/03/18 02:58:23;;;;;;;15.55;8.40;;;;;;;9.44;28.14;102502.17;1920749;100;26437;-87
2022/03/18 03:02:07;;;;;;;12.73;9.50;;;;;;;9.39;28.20;102497.99;1963519;97;25722;-86
2022/03/18 03:09:35;;;;;;;15.95;9.00;;;;;;;9.34;28.28;102512.41;1887683;103;26555;-86
2022/03/18 03:13:13;;;;;;;;;;;;;;;;;;;;;
2022/03/18 03:16:44;;;;;;;12.45;9.05;;;;;;;9.27;28.35;102523.66;1862387;103;25891;-81
2022/03/18 03:20:31;;;;;;;14.40;9.13;;;;;;;9.25;28.39;102523.58;1868312;104;25870;-87
2022/03/18 03:24:30;;;;;;;;;;;;;;;;;;;;;
2022/03/18 03:27:46;;;;;;;13.90;9.00;;;;;;;9.21;28.45;102526.38;1822890;107;25869;-85
2022/03/18 03:31:18;;;;;;;12.50;8.90;;;;;;;9.20;28.47;102531.06;1844428;105;25909;-85
2022/03/18 03:34:58;;;;;;;13.60;9.45;;;;;;;9.18;28.52;102533.99;1832780;104;26290;-85
2022/03/18 03:38:38;;;;;;;13.68;9.28;;;;;;;9.16;28.53;102539.48;1862562;104;26100;-86
2022/03/18 03:42:14;;;;;;;12.20;8.85;;;;;;;9.14;28.57;102538.48;1846165;102;26176;-85
2022/03/18 03:46:02;;;;;;;11.28;7.83;;;;;;;9.13;28.59;102536.69;1876101;104;25504;-86
2022/03/18 03:49:44;;;;;;;15.58;8.43;;;;;;;9.11;28.64;102537.02;1898401;102;25973;-85
2022/03/18 03:53:18;;;;;;;15.85;8.55;;;;;;;9.10;28.69;102548.20;1900442;100;25983;-85
2022/03/18 03:56:48;;;;;;;11.10;7.78;;;;;;;9.07;28.73;102551.91;1954424;100;25801;-86
2022/03/18 04:00:22;;;;;;;12.88;9.18;;;;;;;9.04;28.75;102553.00;1956006;99;25726;-85
2022/03/18 04:04:04;;;;;;;14.15;9.13;;;;;;;9.00;28.79;102549.71;2024087;93;25891;-86
2022/03/18 04:11:37;;;;;;;12.95;8.33;;;;;;;8.97;28.87;102564.72;1975959;98;25788;-86
2022/03/18 04:15:25;;;;;;;14.43;8.73;;;;;;;8.95;28.90;102567.64;1941129;100;25814;-85
2022/03/18 04:19:00;;;;;;;9.03;8.13;;;;;;;8.92;28.94;102569.14;1930937;101;25802;-86
2022/03/18 04:22:52;;;;;;;12.53;8.93;;;;;;;8.91;28.98;102573.82;1917659;100;25943;-87
2022/03/18 04:26:32;;;;;;;11.10;8.10;;;;;;;8.88;29.00;102587.55;1922170;100;26125;-87
2022/03/18 04:30:08;;;;;;;14.43;9.40;;;;;;;8.87;29.02;102587.03;1899394;101;25717;-87
2022/03/18 04:33:35;;;;;;;11.25;8.05;;;;;;;8.85;29.04;102592.55;1880769;104;25901;-85
2022/03/18 04:37:17;;;;;;;14.05;8.43;;;;;;;8.84;29.08;102601.16;1880686;104;25974;-87
2022/03/18 04:40:47;;;;;;;10.78;8.38;;;;;;;8.82;29.11;102606.66;1874260;103;26200;-87
2022/03/18 04:44:11;;;;;;;14.07;9.13;;;;;;;8.82;29.11;102611.86;1873296;102;25363;-85
2022/03/18 04:47:35;;;;;;;12.45;8.23;;;;;;;8.79;29.14;102609.05;1877621;101;25502;-87
2022/03/18 04:51:07;;;;;;;11.73;8.38;;;;;;;8.78;29.16;102609.86;1884403;102;25847;-87
2022/03/18 04:54:46;;;;;;;18.23;9.20;;;;;;;8.78;29.19;102617.66;1931310;100;25915;-87
2022/03/18 04:58:25;;;;;;;12.75;8.85;;;;;;;8.77;29.20;102612.34;1932657;99;25557;-86
2022/03/18 05:01:49;;;;;;;14.13;9.15;;;;;;;8.77;29.25;102615.84;1922678;99;26235;-87
2022/03/18 05:05:17;;;;;;;16.27;9.08;;;;;;;8.76;29.27;102625.75;1997988;97;25774;-87
2022/03/18 05:08:53;;;;;;;13.22;9.40;;;;;;;8.77;29.29;102625.34;2004993;93;25584;-87
2022/03/18 05:12:50;;;;;;;10.85;8.68;;;;;;;8.75;29.32;102628.75;2200790;87;25840;-87
2022/03/18 05:16:15;;;;;;;16.77;8.75;;;;;;;8.76;29.34;102640.05;2208528;87;25693;-86
2022/03/18 05:19:50;;;;;;;12.20;8.28;;;;;;;8.75;29.38;102637.86;2209745;87;25870;-87
2022/03/18 05:23:28;;;;;;;14.53;9.05;;;;;;;8.78;29.39;102645.38;2200127;88;25587;-88
2022/03/18 05:27:15;;;;;;;11.12;8.63;;;;;;;8.80;29.41;102648.55;2198987;89;25712;-87
2022/03/18 05:31:03;;;;;;;11.07;8.10;;;;;;;8.83;29.44;102650.06;2188851;89;25784;-86
2022/03/18 05:34:46;;;;;;;12.05;8.43;;;;;;;8.87;29.50;102652.06;2204510;88;25834;-86
2022/03/18 05:38:27;;;;;;;16.53;9.80;;;;;;;8.90;29.50;102654.88;2335203;83;26073;-85
2022/03/18 05:42:11;;;;;;;14.50;8.75;;;;;;;8.92;29.54;102658.49;2343175;82;25637;-85
2022/03/18 05:46:08;;;;;;;13.58;8.53;;;;;;;8.95;29.56;102663.01;2374309;82;25835;-86
2022/03/18 05:49:46;;;;;;;12.65;9.13;;;;;;;8.95;29.59;102666.50;2371463;81;25230;-86
2022/03/18 05:53:09;;;;;;;12.95;8.58;;;;;;;8.98;29.68;102680.13;2366379;81;26045;-84
2022/03/18 05:56:55;;;;;;;10.80;8.03;;;;;;;9.02;29.66;102686.44;2346095;82;25602;-85
2022/03/18 06:00:30;;;;;;;9.70;8.03;;;;;;;9.06;29.67;102685.84;2360699;82;26059;-87
2022/03/18 06:04:46;;;;;;;;;;;;;;;;;;;;;
2022/03/18 06:12:04;;;;;;;11.60;8.53;;;;;;;9.17;29.85;102690.94;2314570;84;25739;-84
2022/03/18 06:15:39;;;;;;;9.55;8.15;;;;;;;9.23;29.89;102691.75;2320558;83;25779;-85
2022/03/18 06:19:10;;;;;;;13.55;9.33;;;;;;;9.28;29.95;102700.78;2308700;84;25275;-86
2022/03/18 06:22:50;;;;;;;12.95;9.08;;;;;;;9.33;30.02;102709.78;2294688;84;25862;-86
2022/03/18 06:30:29;;;;;;;12.20;9.30;;;;;;;9.45;30.09;102718.41;2122157;91;25792;-81
2022/03/18 06:34:05;;;;;;;14.68;7.97;;;;;;;9.50;30.22;102718.70;2116225;91;25874;-83
2022/03/18 06:37:39;;;;;;;10.30;7.97;;;;;;;9.54;30.20;102714.18;2116651;90;25809;-80
2022/03/18 06:41:16;;;;;;;12.80;8.93;;;;;;;9.60;30.19;102726.70;2055216;94;25506;-79
2022/03/18 06:44:45;;;;;;;9.58;7.45;;;;;;;9.67;30.18;102724.59;2043608;94;25741;-82
2022/03/18 06:48:25;;;;;;;8.48;7.25;;;;;;;9.73;30.31;102724.10;2048788;93;25518;-79
2022/03/18 06:52:00;;;;;;;11.40;7.80;;;;;;;9.80;30.25;102718.48;2103298;91;25793;-84
2022/03/18 06:55:25;;;;;;;12.45;8.25;;;;;;;9.86;30.22;102729.30;2091872;92;25855;-79
2022/03/18 06:59:04;;;;;;;10.85;7.60;;;;;;;9.94;30.31;102724.16;2108178;91;25802;-80
2022/03/18 07:03:13;;;;;;;;;;;;;;;;;;;;;
2022/03/18 07:06:33;;;;;;;10.78;8.53;;;;;;;10.09;30.23;102727.22;2000000;96;26189;-79
2022/03/18 07:10:18;;;;;;;10.03;7.75;;;;;;;10.17;30.20;102738.65;1917522;101;25856;-81
2022/03/18 07:13:46;;;;;;;7.72;6.95;;;;;;;10.26;30.13;102734.84;1872750;104;31104;-78
2022/03/18 07:21:11;;;;;;;12.35;7.70;;;;;;;10.40;30.00;102745.34;1878307;103;25831;-83
2022/03/18 07:25:04;;;;;;;9.80;7.35;;;;;;;10.45;29.31;102735.59;1869470;101;26173;-83
2022/03/18 07:28:38;;;;;;;21.37;7.58;;;;;;;10.29;28.58;102746.77;1970894;98;26137;-83
2022/03/18 07:32:03;;;;;;;14.83;8.33;;;;;;;10.29;28.51;102751.61;1967839;99;25766;-83
2022/03/18 07:35:38;;;;;;;13.83;8.73;;;;;;;13.11;27.40;102753.28;1946958;99;25871;-82
2022/03/18 07:43:00;;;;;;;11.80;7.60;;;;;;;19.64;22.76;102757.05;1977587;98;25896;-83
2022/03/18 07:46:37;;;;;;;9.08;7.60;;;;;;;22.20;20.65;102757.03;1985285;97;25860;-82
2022/03/18 07:50:21;;;;;;;9.05;7.60;;;;;;;24.22;18.94;102774.92;1967853;97;26002;-83
2022/03/18 07:53:44;;;;;;;9.23;7.00;;;;;;;26.03;17.53;102780.14;1816937;106;25885;-83
2022/03/18 07:57:29;;;;;;;12.55;7.28;;;;;;;27.75;16.22;102789.37;1818202;106;26007;-83
2022/03/18 08:01:14;;;;;;;8.48;6.80;;;;;;;29.34;15.10;102800.36;1846064;105;25840;-83
2022/03/18 08:04:58;;;;;;;10.82;6.87;;;;;;;30.78;14.04;102807.94;1829491;106;25907;-83
2022/03/18 08:08:35;;;;;;;7.97;5.55;;;;;;;31.93;13.18;102815.01;1819429;105;25954;-82
2022/03/18 08:12:00;;;;;;;7.67;6.00;;;;;;;32.91;12.58;102816.17;1833055;104;26045;-82
2022/03/18 08:15:41;;;;;;;10.35;5.62;;;;;;;33.70;12.21;102818.07;1773587;109;26048;-83
2022/03/18 08:19:20;;;;;;;5.70;5.12;;;;;;;34.45;11.85;102824.80;1765876;109;25959;-83
2022/03/18 08:23:13;;;;;;;4.62;4.20;;;;;;;35.23;11.54;102828.49;1767659;109;26025;-84
2022/03/18 08:30:47;;;;;;;6.50;4.30;;;;;;;36.57;10.69;102838.93;1690962;110;25904;-86
2022/03/18 08:34:26;;;;;;;5.47;4.20;;;;;;;37.14;10.79;102832.99;1786559;109;25930;-86
2022/03/18 08:38:01;;;;;;;4.80;4.30;;;;;;;37.60;9.92;102836.13;1783216;106;25995;-75
2022/03/18 08:41:22;;;;;;;6.20;4.40;;;;;;;37.14;8.36;102845.23;1815587;106;25619;-76
2022/03/18 08:44:58;;;;;;;6.37;4.83;;;;;;;35.62;8.37;102830.50;1861088;104;25941;-74
2022/03/18 08:48:30;;;;;;;4.70;4.30;;;;;;;35.00;8.09;102818.59;1860934;103;25589;-78
2022/03/18 08:52:09;;;;;;;4.58;4.20;;;;;;;32.97;7.79;102819.16;1851122;103;25990;-77
2022/03/18 08:55:43;;;;;;;4.92;4.22;;;;;;;31.83;8.08;102822.43;1852262;104;25842;-79
2022/03/18 08:59:23;;;;;;;4.00;3.70;;;;;;;31.40;8.50;102819.50;1850137;106;26129;-77
2022/03/18 09:02:58;;;;;;;11.05;4.37;;;;;;;31.37;8.51;102815.53;1865442;104;25617;-78
2022/03/18 09:06:24;;;;;;;7.30;4.65;;;;;;;30.83;8.28;102822.63;1879324;103;25969;-77
2022/03/18 09:09:56;;;;;;;5.40;4.90;;;;;;;30.22;8.76;102815.38;1886719;102;25806;-77
2022/03/18 09:13:35;;;;;;;5.60;5.10;;;;;;;30.38;8.62;102828.08;1933688;101;25862;-77
2022/03/18 09:17:04;;;;;;;6.75;5.30;;;;;;;30.19;8.96;102818.59;1927721;100;25935;-76
2022/03/18 09:20:28;;;;;;;6.92;4.87;;;;;;;29.85;8.56;102832.66;1928618;96;25972;-79
2022/03/18 09:24:12;;;;;;;7.03;5.28;;;;;;;29.43;9.29;102819.03;2048746;95;26045;-78
2022/03/18 09:27:51;;;;;;;6.30;4.95;;;;;;;30.03;9.53;102817.96;2114853;85;25921;-79
2022/03/18 09:31:26;;;;;;;5.35;4.95;;;;;;;30.80;9.19;102814.62;2311038;84;25997;-77
2022/03/18 09:34:59;;;;;;;11.50;5.20;;;;;;;31.29;8.94;102821.09;2302079;84;25822;-79
2022/03/18 09:38:41;;;;;;;7.40;5.55;;;;;;;31.78;8.98;102822.13;2314581;82;25759;-79
2022/03/18 09:42:16;;;;;;;8.60;5.55;;;;;;;32.25;8.72;102826.23;2315052;84;25797;-79
2022/03/18 09:46:00;;;;;;;;;;;;;;;;;;;;;
2022/03/18 09:49:22;;;;;;;5.60;5.10;;;;;;;31.69;8.69;102821.89;2292168;84;25694;-79
2022/03/18 09:52:56;;;;;;;6.58;5.10;;;;;;;30.32;8.48;102818.77;2297556;84;25671;-77
2022/03/18 09:56:18;;;;;;;7.62;5.22;;;;;;;30.26;9.19;102814.86;2357083;81;25746;-79
2022/03/18 09:59:55;;;;;;;6.67;5.10;;;;;;;30.23;9.06;102809.07;2354798;82;25687;-78
2022/03/18 10:03:25;;;;;;;7.10;5.17;;;;;;;30.33;8.57;102816.03;2352902;81;25700;-79
2022/03/18 10:06:51;;;;;;;;;;;;;;;30.00;8.73;102814.86;2311316;82;25700;-79
2022/03/18 10:10:15;;;;;;;4.72;4.33;;;;;;;28.95;8.54;102804.05;2358330;82;26500;-78
2022/03/18 10:18:08;;;;;;;7.50;5.83;;;;;;;27.40;9.98;102801.74;2200961;87;26595;-79
2022/03/18 10:21:56;;;;;;;7.97;4.87;;;;;;;27.86;9.33;102817.91;2111270;90;25715;-78
2022/03/18 10:25:56;;;;;;;9.18;5.42;;;;;;;27.09;9.77;102810.43;2113631;90;25905;-78
2022/03/18 10:29:18;;;;;;;5.95;5.10;;;;;;;26.82;9.70;102818.19;2113737;90;25944;-78
2022/03/18 10:32:45;;;;;;;7.45;4.33;;;;;;;26.85;9.72;102807.46;2120318;90;25894;-77
2022/03/18 10:43:53;;;;;;;9.68;4.75;;;;;;;25.71;10.36;102801.98;2007181;96;26053;-75
2022/03/18 10:47:45;;;;;;;5.15;3.95;;;;;;;26.08;10.16;102809.07;2014786;96;26687;-75
2022/03/18 10:51:08;;;;;;;10.88;3.75;;;;;;;26.17;10.08;102802.82;2014925;96;25752;-76
2022/03/18 10:54:29;;;;;;;10.23;4.95;;;;;;;26.39;9.96;102811.64;2072345;91;25901;-76
2022/03/18 10:57:54;;;;;;;5.83;4.37;;;;;;;25.83;9.65;102804.69;2113797;92;25674;-77
2022/03/18 11:01:25;;;;;;;5.83;4.20;;;;;;;25.46;9.98;102809.13;2122196;91;26989;-75
2022/03/18 11:04:46;;;;;;;6.55;4.60;;;;;;;25.43;9.92;102800.66;2107666;90;25837;-76
2022/03/18 11:08:14;;;;;;;8.45;4.92;;;;;;;25.47;10.21;102797.55;2141777;91;25822;-75
2022/03/18 11:11:35;;;;;;;6.12;5.53;;;;;;;25.05;9.78;102805.48;2119558;90;25840;-75
2022/03/18 11:14:58;;;;;;;6.50;4.95;;;;;;;24.32;10.28;102810.08;2113208;92;25667;-77
2022/03/18 11:18:22;;;;;;;5.12;4.70;;;;;;;23.74;10.55;102803.95;2124126;91;25718;-76
2022/03/18 11:21:45;;;;;;;5.60;5.10;;;;;;;23.78;10.60;102808.85;2165317;88;26081;-75
2022/03/18 11:25:09;;;;;;;6.78;5.75;;;;;;;23.60;10.98;102796.27;2176404;88;26575;-76
2022/03/18 11:28:30;;;;;;;11.97;5.10;;;;;;;23.66;10.69;102794.06;2187654;88;25763;-75
2022/03/18 11:32:20;;;;;;;7.70;5.72;;;;;;;22.63;10.76;102797.02;2201451;87;25693;-75
2022/03/18 11:35:54;;;;;;;9.55;4.85;;;;;;;21.97;11.39;102789.48;2182518;89;25860;-75
2022/03/18 11:39:23;;;;;;;6.30;4.58;;;;;;;22.69;11.55;102785.58;2228812;82;25693;-74
2022/03/18 11:42:45;;;;;;;6.75;5.08;;;;;;;23.28;11.66;102787.54;2348897;83;25730;-75
2022/03/18 11:46:21;;;;;;;5.62;5.12;;;;;;;23.73;11.48;102798.63;2334681;83;25619;-74
2022/03/18 11:49:41;;;;;;;5.47;4.78;;;;;;;23.87;11.24;102788.06;2322255;82;25817;-75
2022/03/18 11:53:02;;;;;;;9.28;5.42;;;;;;;23.27;10.96;102783.55;2337554;83;25849;-74
2022/03/18 11:56:49;;;;;;;5.53;4.65;;;;;;;21.96;11.50;102788.99;2342002;83;25668;-76
2022/03/18 12:00:36;;;;;;;7.95;5.22;;;;;;;21.32;11.55;102779.96;2337829;82;25972;-76
2022/03/18 12:03:57;;;;;;;8.20;5.37;;;;;;;20.50;12.15;102778.82;2332937;83;25939;-74
2022/03/18 12:07:30;;;;;;;6.67;4.97;;;;;;;20.59;12.41;102770.22;2332774;83;25540;-73
2022/03/18 12:10:52;;;;;;;5.83;5.05;;;;;;;20.59;12.41;102764.47;2327926;83;25427;-75
2022/03/18 12:14:14;;;;;;;5.47;4.92;;;;;;;21.28;12.70;102767.52;2412516;80;25879;-74
2022/03/18 12:17:57;;;;;;;9.33;5.03;;;;;;;21.91;12.69;102764.15;2408637;79;25844;-73
2022/03/18 12:21:32;;;;;;;5.08;4.58;;;;;;;22.41;12.49;102761.32;2402677;80;26902;-75
2022/03/18 12:24:56;;;;;;;8.73;4.60;;;;;;;22.77;12.29;102763.94;2414160;80;25948;-75
2022/03/18 12:28:19;;;;;;;5.62;5.00;;;;;;;22.70;11.72;102768.73;2391050;81;25600;-76
2022/03/18 12:31:41;;;;;;;7.87;4.97;;;;;;;22.33;11.69;102767.84;2424023;81;25658;-75
2022/03/18 12:35:05;;;;;;;5.50;5.00;;;;;;;22.06;11.79;102760.36;2393457;81;25626;-76
2022/03/18 12:38:33;;;;;;;5.58;5.10;;;;;;;21.86;11.80;102762.73;2397771;81;25873;-75
2022/03/18 12:42:12;;;;;;;8.38;4.65;;;;;;;21.71;12.45;102748.35;2410390;80;25708;-75
2022/03/18 12:45:44;;;;;;;11.53;5.67;;;;;;;22.04;12.58;102754.16;2418160;80;25582;-75
2022/03/18 12:49:14;;;;;;;6.75;4.20;;;;;;;21.95;12.08;102750.47;2402603;80;25795;-75
2022/03/18 12:52:44;;;;;;;5.97;4.53;;;;;;;21.93;12.04;102752.64;2407248;80;25787;-75
2022/03/18 12:56:07;;;;;;;8.18;5.33;;;;;;;22.08;12.18;102739.14;2414607;80;25613;-74
2022/03/18 12:59:34;;;;;;;7.55;4.85;;;;;;;22.49;12.02;102741.02;2424685;80;26004;-76
2022/03/18 13:03:00;;;;;;;5.22;4.72;;;;;;;22.23;11.89;102741.14;2431414;80;25663;-74
2022/03/18 13:06:28;;;;;;;11.55;5.00;;;;;;;22.22;12.08;102735.37;2410183;81;25701;-74
2022/03/18 13:10:02;;;;;;;14.05;4.80;;;;;;;22.46;11.85;102726.36;2419281;80;25153;-75
2022/03/18 13:13:30;;;;;;;13.85;5.60;;;;;;;22.12;11.68;102736.54;2405070;80;25396;-73
2022/03/18 13:16:50;;;;;;;10.03;5.28;;;;;;;21.81;11.90;102732.58;2418869;79;26877;-76
2022/03/18 13:20:27;;;;;;;7.33;4.28;;;;;;;21.79;12.03;102737.39;2466031;78;25828;-73
2022/03/18 13:23:59;;;;;;;8.90;5.17;;;;;;;22.11;11.71;102733.88;2491211;78;25654;-74
2022/03/18 13:27:24;;;;;;;10.13;4.75;;;;;;;21.83;11.86;102733.47;2369281;82;43585;-74
2022/03/18 13:34:32;;;;;;;9.80;4.95;;;;;;;21.63;12.03;102738.52;2380158;83;25737;-74
2022/03/18 13:38:19;;;;;;;7.05;5.10;;;;;;;21.97;12.20;102731.04;2375834;83;25817;-76
2022/03/18 13:41:58;;;;;;;10.88;5.30;;;;;;;22.00;11.78;102729.72;2329419;83;25849;-77
2022/03/18 13:45:31;;;;;;;5.97;5.37;;;;;;;21.86;11.91;102725.98;2307921;84;25974;-76
2022/03/18 13:49:22;;;;;;;11.80;6.00;;;;;;;21.90;12.02;102719.44;2322866;84;25753;-77
2022/03/18 13:52:48;;;;;;;6.10;5.45;;;;;;;22.14;12.01;102722.85;2286722;84;25707;-76
2022/03/18 13:56:18;;;;;;;5.23;4.83;;;;;;;22.31;11.99;102720.44;2313473;84;25758;-76
2022/03/18 14:00:00;;;;;;;7.42;4.67;;;;;;;22.25;11.92;102724.34;2330665;84;25716;-76
2022/03/18 14:03:46;;;;;;;11.20;5.10;;;;;;;22.27;11.97;102719.03;2326612;84;25749;-77
2022/03/18 14:07:11;;;;;;;5.08;4.67;;;;;;;22.04;11.80;102721.36;2328715;84;25758;-75
2022/03/18 14:10:49;;;;;;;6.65;4.65;;;;;;;21.87;11.83;102716.73;2309441;83;25283;-75
2022/03/18 14:14:28;;;;;;;6.65;4.03;;;;;;;21.90;11.77;102716.78;2326433;83;25790;-76
2022/03/18 14:18:18;;;;;;;10.05;4.70;;;;;;;21.62;11.61;102713.25;2350810;83;25706;-75
2022/03/18 14:21:43;;;;;;;8.15;5.35;;;;;;;21.34;11.91;102707.52;2341575;80;25838;-75
2022/03/18 14:25:36;;;;;;;4.60;4.28;;;;;;;21.56;12.02;102711.82;2362119;82;25790;-75
2022/03/18 14:28:59;;;;;;;5.08;4.58;;;;;;;21.76;11.65;102703.72;2343384;81;25863;-74
2022/03/18 14:32:41;;;;;;;8.03;5.37;;;;;;;21.40;11.82;102709.39;2338101;83;25625;-75
2022/03/18 14:36:14;;;;;;;7.85;4.92;;;;;;;20.70;11.76;102704.60;2350653;82;26554;-75
2022/03/18 14:39:38;;;;;;;10.40;5.67;;;;;;;19.80;12.21;102705.34;2328254;82;26264;-76
2022/03/18 14:43:13;;;;;;;10.72;5.05;;;;;;;18.99;12.56;102700.70;2327936;83;25571;-75
2022/03/18 14:46:42;;;;;;;12.03;5.55;;;;;;;18.43;12.89;102686.41;2339208;82;25740;-76
2022/03/18 14:50:13;;;;;;;5.35;4.85;;;;;;;18.07;13.21;102687.13;2337190;82;25756;-76
2022/03/18 14:53:36;;;;;;;7.75;5.17;;;;;;;17.87;13.42;102694.87;2352383;81;25856;-75
2022/03/18 14:57:02;;;;;;;9.55;6.08;;;;;;;17.70;13.56;102689.04;2290356;84;26279;-76
2022/03/18 15:00:26;;;;;;;5.78;5.28;;;;;;;17.22;13.76;102683.99;2262538;85;25647;-75
2022/03/18 15:03:49;;;;;;;12.33;5.00;;;;;;;16.73;14.01;102681.84;2289993;84;25945;-75
2022/03/18 15:07:26;;;;;;;7.62;5.25;;;;;;;16.19;14.30;102684.28;2266507;85;25814;-75
2022/03/18 15:10:49;;;;;;;5.30;4.80;;;;;;;15.80;14.50;102676.69;2263136;86;25707;-74
2022/03/18 15:14:14;;;;;;;6.47;5.58;;;;;;;15.35;14.80;102679.64;2257942;85;25931;-75
2022/03/18 15:17:35;;;;;;;8.48;6.05;;;;;;;15.06;15.09;102678.05;2216963;86;25683;-75
2022/03/18 15:21:00;;;;;;;9.58;5.75;;;;;;;14.86;15.33;102674.57;2226601;87;31052;-75
2022/03/18 15:24:18;;;;;;;17.27;6.22;;;;;;;14.77;15.48;102666.29;2242904;86;25891;-75
2022/03/18 15:27:39;;;;;;;6.12;5.53;;;;;;;14.68;15.59;102667.62;2256780;86;31019;-74
2022/03/18 15:31:07;;;;;;;8.05;5.92;;;;;;;14.55;15.82;102671.05;2257666;86;25979;-75
2022/03/18 15:34:31;;;;;;;11.33;5.05;;;;;;;14.34;15.91;102673.97;2254729;86;25842;-75
2022/03/18 15:37:58;;;;;;;8.10;6.35;;;;;;;14.17;16.05;102672.83;2254504;86;25730;-75
2022/03/18 15:41:32;;;;;;;9.78;6.12;;;;;;;14.00;16.22;102684.66;2257358;86;26352;-75
2022/03/18 15:44:57;;;;;;;9.68;5.40;;;;;;;13.58;16.35;102680.09;2263520;85;25877;-75
2022/03/18 15:48:20;;;;;;;9.60;6.10;;;;;;;13.44;16.55;102681.16;2276412;85;26751;-74
2022/03/18 15:51:49;;;;;;;9.33;5.37;;;;;;;13.36;16.46;102687.31;2299259;84;34431;-74
2022/03/18 15:55:23;;;;;;;11.30;5.67;;;;;;;13.24;16.73;102677.56;2325120;83;25913;-75
2022/03/18 15:58:45;;;;;;;6.85;6.25;;;;;;;13.21;16.85;102673.03;2279999;84;25830;-74
2022/03/18 16:02:13;;;;;;;10.20;5.75;;;;;;;13.10;16.97;102681.19;2320566;83;25800;-75
2022/03/18 16:05:36;;;;;;;8.90;5.92;;;;;;;12.88;17.02;102682.70;2321866;84;25741;-76
2022/03/18 16:08:59;;;;;;;9.38;6.50;;;;;;;12.75;17.09;102675.94;2324422;85;25813;-74
2022/03/18 16:12:23;;;;;;;6.83;6.15;;;;;;;12.61;17.17;102675.64;2298439;85;31489;-74
2022/03/18 16:15:48;;;;;;;8.28;6.67;;;;;;;12.57;17.30;102677.62;2322421;85;25730;-75
2022/03/18 16:19:11;;;;;;;7.08;6.37;;;;;;;12.49;17.36;102677.64;2323182;82;25874;-74
2022/03/18 16:22:38;;;;;;;10.10;6.47;;;;;;;12.24;17.51;102686.78;2368623;82;25830;-77
2022/03/18 16:26:05;;;;;;;9.35;5.50;;;;;;;12.04;17.64;102686.11;2369140;81;25643;-85
2022/03/18 16:29:27;;;;;;;10.45;5.75;;;;;;;12.11;19.04;102689.96;2418729;80;31035;-83
2022/03/18 16:32:54;;;;;;;12.20;5.22;;;;;;;12.50;19.16;102685.97;2399539;80;25940;-86
2022/03/18 16:36:15;;;;;;;7.47;5.05;;;;;;;12.84;19.12;102684.69;2377827;82;25651;-86
2022/03/18 16:39:47;;;;;;;6.75;5.45;;;;;;;13.12;19.03;102688.28;2396714;80;25773;-84
2022/03/18 16:43:10;;;;;;;7.70;5.72;;;;;;;13.31;18.89;102687.52;2411795;81;26264;-84
2022/03/18 16:50:30;;;;;;;6.80;5.17;;;;;;;13.68;18.75;102693.23;2304984;84;25708;-82
2022/03/18 16:53:54;;;;;;;5.67;5.17;;;;;;;13.82;18.70;102691.27;2300752;85;25748;-85
2022/03/18 16:57:37;;;;;;;8.38;4.83;;;;;;;13.91;18.65;102695.64;2290950;84;26284;-84
2022/03/18 17:01:13;;;;;;;10.18;5.03;;;;;;;13.96;18.61;102697.16;2245355;85;26010;-88
2022/03/18 17:04:41;;;;;;;5.75;5.20;;;;;;;14.00;18.51;102703.02;2250333;86;26474;-90
2022/03/18 17:08:05;;;;;;;8.30;4.63;;;;;;;14.04;18.50;102707.19;2244949;86;25895;-89
2022/03/18 17:11:35;;;;;;;11.80;4.97;;;;;;;14.05;18.49;102704.15;2257061;87;25723;-88
2022/03/18 17:15:02;;;;;;;7.05;4.85;;;;;;;14.06;18.51;102706.83;2239286;86;25888;-87
2022/03/18 17:18:47;;;;;;;7.62;5.83;;;;;;;14.06;18.54;102712.08;2249966;86;25733;-84
2022/03/18 17:22:44;;;;;;;7.45;5.28;;;;;;;14.06;18.56;102722.56;2238185;86;25682;-86
2022/03/18 17:26:06;;;;;;;12.13;5.47;;;;;;;14.09;18.63;102722.72;2252577;86;26453;-91
2022/03/18 17:29:54;;;;;;;6.33;5.12;;;;;;;14.09;18.67;102720.09;2239758;86;26429;-89
2022/03/18 17:33:34;;;;;;;6.12;5.60;;;;;;;14.09;18.74;102721.83;2208975;87;25728;-90
2022/03/18 17:37:08;;;;;;;7.95;5.78;;;;;;;14.08;18.78;102727.91;2208559;88;25720;-90
2022/03/18 17:40:30;;;;;;;7.05;4.70;;;;;;;14.06;18.84;102726.50;2229819;88;25873;-88
2022/03/18 17:44:01;;;;;;;10.70;5.78;;;;;;;14.05;18.89;102731.70;2148357;89;31360;-89
2022/03/18 17:47:24;;;;;;;13.45;5.10;;;;;;;14.04;18.94;102737.74;2146911;90;26756;-81
2022/03/18 17:50:57;;;;;;;6.03;5.42;;;;;;;14.02;19.00;102736.38;2144939;91;25396;-84
2022/03/18 17:54:19;;;;;;;6.22;5.62;;;;;;;14.01;19.03;102744.19;2142482;90;26572;-87
2022/03/18 17:57:42;;;;;;;5.67;5.17;;;;;;;13.99;19.06;102746.72;2196349;88;25862;-87
2022/03/18 18:01:14;;;;;;;6.17;5.12;;;;;;;13.98;19.05;102741.00;2172404;89;30945;-89